Pays
Station

 

Conditions  météo  pour  Tyler, Tyler Pounds Field  -  Etats-Unis    Etats-Unis

  
25 °C
    
 
 

METAR pour Tyler, Tyler Pounds Field :

KTYR 232053Z 18008KT 10SM FEW029 25/17 A2999 RMK AO2 SLP149 T02500167 58017

 

Voici le bulletin pour Tyler, Tyler Pounds Field - Etats-Unis.
 
Le bulletin a été fait il y a une heure et 9 minutes, à 20:53 UTC .
Le vent soufflait à la vitesse de 4.1 mètres par seconde de Sud (180°).
 
La température était de 25 °C, avec un point de rosée à 17 °C.
La température ressentie était de 26 °C.
 
La pression atmosphérique était de 1016 hPa.
L'humidité relative était de 61.2%.
 
Il y avait 1 à 2/8ème de nébulosité à une hauteur de 884 mètres.
 
La visibilité globale était de 16.1 kilomètres.
 

 
 
 

Pays :   A   B   C   D   E   F   G   H   I   J   K   L   M   N   O   P   Q   R   S   T   U   V   W   Y   Z

 

Partenaires :  Info Météo avec Met'info
Météo Marine avec MeteoMarine.net
Infos Site  |  Infos Légales  |  Crédits  |  Confidentialité
Contactez-nous  |  Ajouter aux favoris
© 2013-2019 METAR - Tous droits réservés